sensor_id;sensor_type;location;lat;lon;timestamp;P1;durP1;ratioP1;P2;durP2;ratioP2
17604;SDS011;8921;50.964;6.800;2022-12-07T00:00:53;25.70;;;15.67;;
17604;SDS011;8921;50.964;6.800;2022-12-07T00:03:21;29.53;;;17.60;;
17604;SDS011;8921;50.964;6.800;2022-12-07T00:05:49;25.73;;;16.73;;
17604;SDS011;8921;50.964;6.800;2022-12-07T00:08:17;33.37;;;17.80;;
17604;SDS011;8921;50.964;6.800;2022-12-07T00:10:45;26.63;;;18.20;;
17604;SDS011;8921;50.964;6.800;2022-12-07T00:13:14;29.20;;;17.17;;
17604;SDS011;8921;50.964;6.800;2022-12-07T00:15:42;32.43;;;18.27;;
17604;SDS011;8921;50.964;6.800;2022-12-07T00:18:10;30.20;;;16.33;;
17604;SDS011;8921;50.964;6.800;2022-12-07T00:20:38;31.97;;;19.60;;
17604;SDS011;8921;50.964;6.800;2022-12-07T00:23:06;30.40;;;19.30;;
17604;SDS011;8921;50.964;6.800;2022-12-07T00:25:35;27.00;;;17.00;;
17604;SDS011;8921;50.964;6.800;2022-12-07T00:28:03;28.93;;;17.60;;
17604;SDS011;8921;50.964;6.800;2022-12-07T00:30:31;33.03;;;18.20;;
17604;SDS011;8921;50.964;6.800;2022-12-07T00:32:59;35.20;;;19.37;;
17604;SDS011;8921;50.964;6.800;2022-12-07T00:35:28;27.93;;;18.00;;
17604;SDS011;8921;50.964;6.800;2022-12-07T00:37:56;29.73;;;19.20;;
17604;SDS011;8921;50.964;6.800;2022-12-07T00:40:24;30.13;;;17.90;;
17604;SDS011;8921;50.964;6.800;2022-12-07T00:42:52;31.23;;;19.60;;
17604;SDS011;8921;50.964;6.800;2022-12-07T00:45:20;28.87;;;18.00;;
17604;SDS011;8921;50.964;6.800;2022-12-07T00:47:48;32.47;;;18.97;;
17604;SDS011;8921;50.964;6.800;2022-12-07T00:50:17;31.40;;;18.97;;
17604;SDS011;8921;50.964;6.800;2022-12-07T00:52:45;30.27;;;18.33;;
17604;SDS011;8921;50.964;6.800;2022-12-07T00:55:13;32.17;;;18.80;;
17604;SDS011;8921;50.964;6.800;2022-12-07T00:57:41;27.70;;;18.37;;
17604;SDS011;8921;50.964;6.800;2022-12-07T01:00:09;29.03;;;17.40;;
17604;SDS011;8921;50.964;6.800;2022-12-07T01:02:38;34.10;;;18.20;;
17604;SDS011;8921;50.964;6.800;2022-12-07T01:05:06;29.63;;;18.23;;
17604;SDS011;8921;50.964;6.800;2022-12-07T01:07:34;28.03;;;18.03;;
17604;SDS011;8921;50.964;6.800;2022-12-07T01:10:02;29.77;;;19.80;;
17604;SDS011;8921;50.964;6.800;2022-12-07T01:12:30;30.37;;;18.50;;
17604;SDS011;8921;50.964;6.800;2022-12-07T01:14:59;26.30;;;17.20;;
17604;SDS011;8921;50.964;6.800;2022-12-07T01:17:28;33.80;;;19.73;;
17604;SDS011;8921;50.964;6.800;2022-12-07T01:19:55;28.97;;;19.10;;
17604;SDS011;8921;50.964;6.800;2022-12-07T01:22:23;33.73;;;18.57;;
17604;SDS011;8921;50.964;6.800;2022-12-07T01:24:51;27.43;;;18.10;;
17604;SDS011;8921;50.964;6.800;2022-12-07T01:27:20;30.90;;;21.00;;
17604;SDS011;8921;50.964;6.800;2022-12-07T01:29:48;30.17;;;19.43;;
17604;SDS011;8921;50.964;6.800;2022-12-07T01:32:16;30.60;;;20.27;;
17604;SDS011;8921;50.964;6.800;2022-12-07T01:34:44;29.20;;;19.17;;
17604;SDS011;8921;50.964;6.800;2022-12-07T01:37:12;24.80;;;18.77;;
17604;SDS011;8921;50.964;6.800;2022-12-07T01:39:40;26.90;;;18.33;;
17604;SDS011;8921;50.964;6.800;2022-12-07T01:42:11;32.17;;;18.83;;
17604;SDS011;8921;50.964;6.800;2022-12-07T01:47:26;32.30;;;20.57;;
17604;SDS011;8921;50.964;6.800;2022-12-07T01:49:54;28.73;;;18.73;;
17604;SDS011;8921;50.964;6.800;2022-12-07T01:52:23;27.17;;;18.80;;
17604;SDS011;8921;50.964;6.800;2022-12-07T01:54:52;29.77;;;18.77;;
17604;SDS011;8921;50.964;6.800;2022-12-07T01:57:19;28.67;;;18.80;;
17604;SDS011;8921;50.964;6.800;2022-12-07T01:59:47;29.63;;;18.93;;
17604;SDS011;8921;50.964;6.800;2022-12-07T02:02:19;30.33;;;19.70;;
17604;SDS011;8921;50.964;6.800;2022-12-07T02:04:46;26.80;;;17.50;;
17604;SDS011;8921;50.964;6.800;2022-12-07T02:07:14;27.27;;;17.50;;
17604;SDS011;8921;50.964;6.800;2022-12-07T02:09:42;32.00;;;19.80;;
17604;SDS011;8921;50.964;6.800;2022-12-07T02:12:11;30.13;;;18.63;;
17604;SDS011;8921;50.964;6.800;2022-12-07T02:14:39;31.03;;;19.47;;
17604;SDS011;8921;50.964;6.800;2022-12-07T02:25:45;28.87;;;19.50;;
17604;SDS011;8921;50.964;6.800;2022-12-07T02:30:10;29.30;;;20.00;;
17604;SDS011;8921;50.964;6.800;2022-12-07T02:35:27;30.83;;;20.20;;
17604;SDS011;8921;50.964;6.800;2022-12-07T02:37:58;31.17;;;19.47;;
17604;SDS011;8921;50.964;6.800;2022-12-07T02:40:26;33.20;;;19.73;;
17604;SDS011;8921;50.964;6.800;2022-12-07T02:42:57;35.73;;;19.60;;
17604;SDS011;8921;50.964;6.800;2022-12-07T02:45:23;38.30;;;21.20;;
17604;SDS011;8921;50.964;6.800;2022-12-07T02:47:51;36.13;;;21.40;;
17604;SDS011;8921;50.964;6.800;2022-12-07T02:50:20;31.83;;;19.33;;
17604;SDS011;8921;50.964;6.800;2022-12-07T02:52:47;28.77;;;20.20;;
17604;SDS011;8921;50.964;6.800;2022-12-07T02:55:16;28.60;;;19.63;;
17604;SDS011;8921;50.964;6.800;2022-12-07T03:00:30;36.93;;;20.73;;
17604;SDS011;8921;50.964;6.800;2022-12-07T03:03:06;37.80;;;21.27;;
17604;SDS011;8921;50.964;6.800;2022-12-07T03:10:39;29.70;;;21.07;;
17604;SDS011;8921;50.964;6.800;2022-12-07T03:13:14;41.07;;;21.93;;
17604;SDS011;8921;50.964;6.800;2022-12-07T03:15:42;30.83;;;20.23;;
17604;SDS011;8921;50.964;6.800;2022-12-07T03:18:08;32.87;;;20.93;;
17604;SDS011;8921;50.964;6.800;2022-12-07T03:20:36;39.60;;;23.37;;
17604;SDS011;8921;50.964;6.800;2022-12-07T03:23:05;33.50;;;21.40;;
17604;SDS011;8921;50.964;6.800;2022-12-07T03:25:32;33.40;;;21.33;;
17604;SDS011;8921;50.964;6.800;2022-12-07T03:28:04;36.30;;;22.30;;
17604;SDS011;8921;50.964;6.800;2022-12-07T03:33:08;32.03;;;21.60;;
17604;SDS011;8921;50.964;6.800;2022-12-07T03:35:35;35.23;;;20.47;;
17604;SDS011;8921;50.964;6.800;2022-12-07T03:38:12;39.43;;;22.40;;
17604;SDS011;8921;50.964;6.800;2022-12-07T03:40:40;35.43;;;21.00;;
17604;SDS011;8921;50.964;6.800;2022-12-07T03:43:07;33.20;;;20.47;;
17604;SDS011;8921;50.964;6.800;2022-12-07T03:45:40;33.97;;;20.60;;
17604;SDS011;8921;50.964;6.800;2022-12-07T03:50:37;38.10;;;21.07;;
17604;SDS011;8921;50.964;6.800;2022-12-07T03:53:05;31.27;;;20.23;;
17604;SDS011;8921;50.964;6.800;2022-12-07T03:55:32;30.60;;;18.63;;
17604;SDS011;8921;50.964;6.800;2022-12-07T03:58:03;36.97;;;21.83;;
17604;SDS011;8921;50.964;6.800;2022-12-07T04:00:30;31.63;;;20.93;;
17604;SDS011;8921;50.964;6.800;2022-12-07T04:02:58;33.13;;;22.40;;
17604;SDS011;8921;50.964;6.800;2022-12-07T04:05:27;35.37;;;21.83;;
17604;SDS011;8921;50.964;6.800;2022-12-07T04:07:55;36.27;;;21.40;;
17604;SDS011;8921;50.964;6.800;2022-12-07T04:10:23;38.63;;;21.47;;
17604;SDS011;8921;50.964;6.800;2022-12-07T04:12:51;37.03;;;23.57;;
17604;SDS011;8921;50.964;6.800;2022-12-07T04:15:19;35.10;;;19.87;;
17604;SDS011;8921;50.964;6.800;2022-12-07T04:17:47;34.80;;;20.50;;
17604;SDS011;8921;50.964;6.800;2022-12-07T04:20:16;36.70;;;21.93;;
17604;SDS011;8921;50.964;6.800;2022-12-07T04:22:44;37.57;;;23.60;;
17604;SDS011;8921;50.964;6.800;2022-12-07T04:25:12;34.80;;;21.33;;
17604;SDS011;8921;50.964;6.800;2022-12-07T04:27:40;43.43;;;27.70;;
17604;SDS011;8921;50.964;6.800;2022-12-07T04:30:09;32.67;;;19.23;;
17604;SDS011;8921;50.964;6.800;2022-12-07T04:32:37;33.23;;;22.23;;
17604;SDS011;8921;50.964;6.800;2022-12-07T04:35:06;34.93;;;21.53;;
17604;SDS011;8921;50.964;6.800;2022-12-07T04:37:33;35.67;;;24.63;;
17604;SDS011;8921;50.964;6.800;2022-12-07T04:40:02;36.50;;;23.60;;
17604;SDS011;8921;50.964;6.800;2022-12-07T04:42:30;34.37;;;21.70;;
17604;SDS011;8921;50.964;6.800;2022-12-07T04:44:58;34.60;;;21.57;;
17604;SDS011;8921;50.964;6.800;2022-12-07T04:47:26;40.33;;;23.53;;
17604;SDS011;8921;50.964;6.800;2022-12-07T04:49:54;32.53;;;21.43;;
17604;SDS011;8921;50.964;6.800;2022-12-07T04:52:22;33.43;;;21.17;;
17604;SDS011;8921;50.964;6.800;2022-12-07T04:54:51;33.83;;;21.47;;
17604;SDS011;8921;50.964;6.800;2022-12-07T04:57:19;34.70;;;20.00;;
17604;SDS011;8921;50.964;6.800;2022-12-07T04:59:47;31.60;;;20.90;;
17604;SDS011;8921;50.964;6.800;2022-12-07T05:02:15;32.33;;;20.83;;
17604;SDS011;8921;50.964;6.800;2022-12-07T05:04:43;32.10;;;19.60;;
17604;SDS011;8921;50.964;6.800;2022-12-07T05:07:11;38.50;;;22.50;;
17604;SDS011;8921;50.964;6.800;2022-12-07T05:09:40;47.47;;;25.50;;
17604;SDS011;8921;50.964;6.800;2022-12-07T05:12:08;34.80;;;21.10;;
17604;SDS011;8921;50.964;6.800;2022-12-07T05:14:36;30.63;;;19.60;;
17604;SDS011;8921;50.964;6.800;2022-12-07T05:17:04;38.50;;;20.93;;
17604;SDS011;8921;50.964;6.800;2022-12-07T05:19:32;26.37;;;18.10;;
17604;SDS011;8921;50.964;6.800;2022-12-07T05:22:00;34.93;;;19.80;;
17604;SDS011;8921;50.964;6.800;2022-12-07T05:24:29;33.50;;;20.30;;
17604;SDS011;8921;50.964;6.800;2022-12-07T05:26:57;46.63;;;26.53;;
17604;SDS011;8921;50.964;6.800;2022-12-07T05:29:25;36.10;;;21.30;;
17604;SDS011;8921;50.964;6.800;2022-12-07T05:31:53;38.80;;;23.47;;
17604;SDS011;8921;50.964;6.800;2022-12-07T05:34:21;35.87;;;21.50;;
17604;SDS011;8921;50.964;6.800;2022-12-07T05:36:49;32.17;;;21.00;;
17604;SDS011;8921;50.964;6.800;2022-12-07T05:39:18;34.97;;;21.47;;
17604;SDS011;8921;50.964;6.800;2022-12-07T05:41:46;32.20;;;21.60;;
17604;SDS011;8921;50.964;6.800;2022-12-07T05:44:33;40.70;;;25.10;;
17604;SDS011;8921;50.964;6.800;2022-12-07T05:47:01;33.63;;;21.00;;
17604;SDS011;8921;50.964;6.800;2022-12-07T05:49:29;35.40;;;20.30;;
17604;SDS011;8921;50.964;6.800;2022-12-07T05:51:57;29.80;;;19.67;;
17604;SDS011;8921;50.964;6.800;2022-12-07T05:54:25;38.17;;;20.53;;
17604;SDS011;8921;50.964;6.800;2022-12-07T05:56:54;31.43;;;18.87;;
17604;SDS011;8921;50.964;6.800;2022-12-07T05:59:22;28.43;;;19.90;;
17604;SDS011;8921;50.964;6.800;2022-12-07T06:01:57;36.13;;;23.17;;
17604;SDS011;8921;50.964;6.800;2022-12-07T06:04:25;32.57;;;20.90;;
17604;SDS011;8921;50.964;6.800;2022-12-07T06:06:52;46.50;;;22.73;;
17604;SDS011;8921;50.964;6.800;2022-12-07T06:09:20;39.83;;;20.53;;
17604;SDS011;8921;50.964;6.800;2022-12-07T06:11:48;31.77;;;19.20;;
17604;SDS011;8921;50.964;6.800;2022-12-07T06:14:36;31.70;;;18.63;;
17604;SDS011;8921;50.964;6.800;2022-12-07T06:17:04;30.43;;;18.50;;
17604;SDS011;8921;50.964;6.800;2022-12-07T06:19:32;39.33;;;21.47;;
17604;SDS011;8921;50.964;6.800;2022-12-07T06:22:01;32.33;;;21.00;;
17604;SDS011;8921;50.964;6.800;2022-12-07T06:24:28;35.47;;;21.57;;
17604;SDS011;8921;50.964;6.800;2022-12-07T06:26:56;33.17;;;20.20;;
17604;SDS011;8921;50.964;6.800;2022-12-07T06:29:24;39.93;;;23.90;;
17604;SDS011;8921;50.964;6.800;2022-12-07T06:31:53;47.93;;;23.53;;
17604;SDS011;8921;50.964;6.800;2022-12-07T06:34:21;41.63;;;23.83;;
17604;SDS011;8921;50.964;6.800;2022-12-07T06:36:49;34.27;;;21.57;;
17604;SDS011;8921;50.964;6.800;2022-12-07T06:39:18;41.23;;;21.23;;
17604;SDS011;8921;50.964;6.800;2022-12-07T06:41:45;36.63;;;22.60;;
17604;SDS011;8921;50.964;6.800;2022-12-07T06:44:14;35.43;;;22.37;;
17604;SDS011;8921;50.964;6.800;2022-12-07T06:46:42;33.70;;;21.83;;
17604;SDS011;8921;50.964;6.800;2022-12-07T06:49:10;33.73;;;23.13;;
17604;SDS011;8921;50.964;6.800;2022-12-07T06:51:38;37.90;;;22.80;;
17604;SDS011;8921;50.964;6.800;2022-12-07T06:54:10;35.40;;;22.97;;
17604;SDS011;8921;50.964;6.800;2022-12-07T06:56:37;36.50;;;21.83;;
17604;SDS011;8921;50.964;6.800;2022-12-07T06:59:06;35.30;;;22.47;;
17604;SDS011;8921;50.964;6.800;2022-12-07T07:01:34;33.47;;;22.63;;
17604;SDS011;8921;50.964;6.800;2022-12-07T07:04:02;31.80;;;20.77;;
17604;SDS011;8921;50.964;6.800;2022-12-07T07:06:30;34.90;;;22.97;;
17604;SDS011;8921;50.964;6.800;2022-12-07T07:08:58;40.43;;;22.63;;
17604;SDS011;8921;50.964;6.800;2022-12-07T07:11:26;37.43;;;22.17;;
17604;SDS011;8921;50.964;6.800;2022-12-07T07:13:57;39.10;;;21.43;;
17604;SDS011;8921;50.964;6.800;2022-12-07T07:16:26;41.63;;;24.80;;
17604;SDS011;8921;50.964;6.800;2022-12-07T07:18:54;45.23;;;23.77;;
17604;SDS011;8921;50.964;6.800;2022-12-07T07:21:22;39.27;;;21.37;;
17604;SDS011;8921;50.964;6.800;2022-12-07T07:23:50;34.83;;;21.17;;
17604;SDS011;8921;50.964;6.800;2022-12-07T07:26:18;33.97;;;22.20;;
17604;SDS011;8921;50.964;6.800;2022-12-07T07:28:46;36.80;;;23.17;;
17604;SDS011;8921;50.964;6.800;2022-12-07T07:31:15;34.57;;;22.10;;
17604;SDS011;8921;50.964;6.800;2022-12-07T07:33:44;31.53;;;20.87;;
17604;SDS011;8921;50.964;6.800;2022-12-07T07:36:11;36.33;;;22.87;;
17604;SDS011;8921;50.964;6.800;2022-12-07T07:38:39;33.80;;;21.00;;
17604;SDS011;8921;50.964;6.800;2022-12-07T07:41:07;36.30;;;21.80;;
17604;SDS011;8921;50.964;6.800;2022-12-07T07:43:36;32.87;;;21.47;;
17604;SDS011;8921;50.964;6.800;2022-12-07T07:46:04;45.23;;;21.80;;
17604;SDS011;8921;50.964;6.800;2022-12-07T07:48:32;30.67;;;21.10;;
17604;SDS011;8921;50.964;6.800;2022-12-07T07:51:00;32.23;;;21.07;;
17604;SDS011;8921;50.964;6.800;2022-12-07T07:53:28;33.47;;;20.77;;
17604;SDS011;8921;50.964;6.800;2022-12-07T07:55:56;31.30;;;20.30;;
17604;SDS011;8921;50.964;6.800;2022-12-07T07:58:25;29.40;;;20.13;;
17604;SDS011;8921;50.964;6.800;2022-12-07T08:00:53;30.13;;;19.90;;
17604;SDS011;8921;50.964;6.800;2022-12-07T08:03:21;33.37;;;18.50;;
17604;SDS011;8921;50.964;6.800;2022-12-07T08:05:49;29.60;;;18.13;;
17604;SDS011;8921;50.964;6.800;2022-12-07T08:08:17;32.33;;;19.00;;
17604;SDS011;8921;50.964;6.800;2022-12-07T08:10:45;29.90;;;18.47;;
17604;SDS011;8921;50.964;6.800;2022-12-07T08:13:16;29.30;;;17.47;;
17604;SDS011;8921;50.964;6.800;2022-12-07T08:15:44;26.23;;;17.83;;
17604;SDS011;8921;50.964;6.800;2022-12-07T08:18:10;35.63;;;18.50;;
17604;SDS011;8921;50.964;6.800;2022-12-07T08:20:39;26.57;;;16.77;;
17604;SDS011;8921;50.964;6.800;2022-12-07T08:23:07;28.10;;;18.80;;
17604;SDS011;8921;50.964;6.800;2022-12-07T08:25:35;34.90;;;19.07;;
17604;SDS011;8921;50.964;6.800;2022-12-07T08:28:03;30.13;;;16.57;;
17604;SDS011;8921;50.964;6.800;2022-12-07T08:30:31;30.20;;;17.50;;
17604;SDS011;8921;50.964;6.800;2022-12-07T08:32:59;27.67;;;16.07;;
17604;SDS011;8921;50.964;6.800;2022-12-07T08:35:27;27.33;;;16.70;;
17604;SDS011;8921;50.964;6.800;2022-12-07T08:37:55;27.30;;;16.77;;
17604;SDS011;8921;50.964;6.800;2022-12-07T08:40:24;28.43;;;16.67;;
17604;SDS011;8921;50.964;6.800;2022-12-07T08:42:52;27.17;;;16.40;;
17604;SDS011;8921;50.964;6.800;2022-12-07T08:45:20;25.03;;;14.93;;
17604;SDS011;8921;50.964;6.800;2022-12-07T08:47:50;27.00;;;16.23;;
17604;SDS011;8921;50.964;6.800;2022-12-07T08:50:17;28.20;;;16.20;;
17604;SDS011;8921;50.964;6.800;2022-12-07T08:52:46;27.20;;;16.47;;
17604;SDS011;8921;50.964;6.800;2022-12-07T08:55:13;23.83;;;14.80;;
17604;SDS011;8921;50.964;6.800;2022-12-07T08:57:41;26.43;;;16.47;;
17604;SDS011;8921;50.964;6.800;2022-12-07T09:00:09;25.43;;;14.67;;
17604;SDS011;8921;50.964;6.800;2022-12-07T09:02:38;24.07;;;14.10;;
17604;SDS011;8921;50.964;6.800;2022-12-07T09:05:06;28.87;;;16.33;;
17604;SDS011;8921;50.964;6.800;2022-12-07T09:07:34;25.60;;;15.23;;
17604;SDS011;8921;50.964;6.800;2022-12-07T09:10:02;33.93;;;17.23;;
17604;SDS011;8921;50.964;6.800;2022-12-07T09:12:30;20.37;;;13.73;;
17604;SDS011;8921;50.964;6.800;2022-12-07T09:14:58;20.40;;;13.57;;
17604;SDS011;8921;50.964;6.800;2022-12-07T09:17:26;21.00;;;13.50;;
17604;SDS011;8921;50.964;6.800;2022-12-07T09:19:55;26.53;;;13.37;;
17604;SDS011;8921;50.964;6.800;2022-12-07T09:22:23;21.80;;;13.57;;
17604;SDS011;8921;50.964;6.800;2022-12-07T09:24:51;24.03;;;13.70;;
17604;SDS011;8921;50.964;6.800;2022-12-07T09:27:19;22.30;;;14.70;;
17604;SDS011;8921;50.964;6.800;2022-12-07T09:29:47;22.67;;;14.57;;
17604;SDS011;8921;50.964;6.800;2022-12-07T09:32:16;20.47;;;12.30;;
17604;SDS011;8921;50.964;6.800;2022-12-07T09:34:44;23.90;;;12.53;;
17604;SDS011;8921;50.964;6.800;2022-12-07T09:37:12;25.17;;;13.07;;
17604;SDS011;8921;50.964;6.800;2022-12-07T09:39:40;18.53;;;11.90;;
17604;SDS011;8921;50.964;6.800;2022-12-07T09:42:08;23.73;;;12.30;;
17604;SDS011;8921;50.964;6.800;2022-12-07T09:44:39;21.13;;;11.73;;
17604;SDS011;8921;50.964;6.800;2022-12-07T09:47:05;16.57;;;11.00;;
17604;SDS011;8921;50.964;6.800;2022-12-07T09:49:33;20.37;;;12.07;;
17604;SDS011;8921;50.964;6.800;2022-12-07T09:52:03;16.93;;;11.10;;
17604;SDS011;8921;50.964;6.800;2022-12-07T09:54:33;23.43;;;12.03;;
17604;SDS011;8921;50.964;6.800;2022-12-07T09:57:00;20.80;;;12.50;;
17604;SDS011;8921;50.964;6.800;2022-12-07T09:59:29;21.03;;;12.10;;
17604;SDS011;8921;50.964;6.800;2022-12-07T10:01:57;20.60;;;11.17;;
17604;SDS011;8921;50.964;6.800;2022-12-07T10:04:25;20.80;;;11.70;;
17604;SDS011;8921;50.964;6.800;2022-12-07T10:06:53;23.60;;;13.87;;
17604;SDS011;8921;50.964;6.800;2022-12-07T10:09:21;20.80;;;11.53;;
17604;SDS011;8921;50.964;6.800;2022-12-07T10:11:59;21.07;;;12.50;;
17604;SDS011;8921;50.964;6.800;2022-12-07T10:14:28;20.97;;;10.70;;
17604;SDS011;8921;50.964;6.800;2022-12-07T10:16:55;19.70;;;11.90;;
17604;SDS011;8921;50.964;6.800;2022-12-07T10:19:28;21.17;;;12.27;;
17604;SDS011;8921;50.964;6.800;2022-12-07T10:24:28;26.30;;;12.20;;
17604;SDS011;8921;50.964;6.800;2022-12-07T10:26:57;19.53;;;12.13;;
17604;SDS011;8921;50.964;6.800;2022-12-07T10:29:32;20.70;;;13.07;;
17604;SDS011;8921;50.964;6.800;2022-12-07T10:32:01;18.00;;;10.60;;
17604;SDS011;8921;50.964;6.800;2022-12-07T10:34:28;19.93;;;11.50;;
17604;SDS011;8921;50.964;6.800;2022-12-07T10:39:43;19.60;;;11.47;;
17604;SDS011;8921;50.964;6.800;2022-12-07T10:44:44;21.13;;;9.47;;
17604;SDS011;8921;50.964;6.800;2022-12-07T10:47:20;23.90;;;9.87;;
17604;SDS011;8921;50.964;6.800;2022-12-07T10:49:51;20.60;;;10.57;;
17604;SDS011;8921;50.964;6.800;2022-12-07T11:00:39;19.80;;;10.00;;
17604;SDS011;8921;50.964;6.800;2022-12-07T11:10:49;17.30;;;8.30;;
17604;SDS011;8921;50.964;6.800;2022-12-07T11:21:15;22.33;;;12.23;;
17604;SDS011;8921;50.964;6.800;2022-12-07T11:31:52;16.13;;;9.00;;
17604;SDS011;8921;50.964;6.800;2022-12-07T11:34:21;22.30;;;10.63;;
17604;SDS011;8921;50.964;6.800;2022-12-07T11:36:45;17.60;;;8.90;;
17604;SDS011;8921;50.964;6.800;2022-12-07T11:39:59;18.20;;;9.80;;
17604;SDS011;8921;50.964;6.800;2022-12-07T11:41:41;15.17;;;10.07;;
17604;SDS011;8921;50.964;6.800;2022-12-07T11:52:06;22.57;;;12.00;;
17604;SDS011;8921;50.964;6.800;2022-12-07T11:54:35;23.30;;;12.07;;
17604;SDS011;8921;50.964;6.800;2022-12-07T11:57:02;20.20;;;12.13;;
17604;SDS011;8921;50.964;6.800;2022-12-07T11:59:36;20.33;;;11.50;;
17604;SDS011;8921;50.964;6.800;2022-12-07T12:02:11;20.10;;;11.83;;
17604;SDS011;8921;50.964;6.800;2022-12-07T12:04:41;21.73;;;13.27;;
17604;SDS011;8921;50.964;6.800;2022-12-07T12:07:03;17.57;;;10.20;;
17604;SDS011;8921;50.964;6.800;2022-12-07T12:09:33;20.90;;;10.83;;
17604;SDS011;8921;50.964;6.800;2022-12-07T12:12:16;21.70;;;10.00;;
17604;SDS011;8921;50.964;6.800;2022-12-07T12:14:59;19.40;;;10.33;;
17604;SDS011;8921;50.964;6.800;2022-12-07T12:20:23;18.33;;;11.10;;
17604;SDS011;8921;50.964;6.800;2022-12-07T12:23:00;24.60;;;10.97;;
17604;SDS011;8921;50.964;6.800;2022-12-07T12:25:30;26.00;;;10.77;;
17604;SDS011;8921;50.964;6.800;2022-12-07T12:27:58;17.63;;;10.57;;
17604;SDS011;8921;50.964;6.800;2022-12-07T12:30:29;15.57;;;9.80;;
17604;SDS011;8921;50.964;6.800;2022-12-07T12:32:53;20.00;;;11.13;;
17604;SDS011;8921;50.964;6.800;2022-12-07T12:35:27;22.13;;;9.93;;
17604;SDS011;8921;50.964;6.800;2022-12-07T12:37:51;19.93;;;9.60;;
17604;SDS011;8921;50.964;6.800;2022-12-07T12:42:55;17.93;;;10.50;;
17604;SDS011;8921;50.964;6.800;2022-12-07T12:45:24;18.93;;;10.30;;
17604;SDS011;8921;50.964;6.800;2022-12-07T12:47:55;29.20;;;13.50;;
17604;SDS011;8921;50.964;6.800;2022-12-07T12:50:23;36.80;;;16.23;;
17604;SDS011;8921;50.964;6.800;2022-12-07T12:52:52;75.03;;;35.10;;
17604;SDS011;8921;50.964;6.800;2022-12-07T12:55:19;91.97;;;43.30;;
17604;SDS011;8921;50.964;6.800;2022-12-07T12:58:22;49.17;;;23.67;;
17604;SDS011;8921;50.964;6.800;2022-12-07T13:00:19;27.33;;;15.50;;
17604;SDS011;8921;50.964;6.800;2022-12-07T13:02:47;24.50;;;14.00;;
17604;SDS011;8921;50.964;6.800;2022-12-07T13:05:16;34.17;;;19.50;;
17604;SDS011;8921;50.964;6.800;2022-12-07T13:10:20;27.80;;;13.63;;
17604;SDS011;8921;50.964;6.800;2022-12-07T13:18:54;29.50;;;16.80;;
17604;SDS011;8921;50.964;6.800;2022-12-07T13:20:44;23.40;;;14.70;;
17604;SDS011;8921;50.964;6.800;2022-12-07T13:23:08;20.70;;;11.67;;
17604;SDS011;8921;50.964;6.800;2022-12-07T13:25:38;22.93;;;11.20;;
17604;SDS011;8921;50.964;6.800;2022-12-07T13:28:09;32.43;;;15.40;;
17604;SDS011;8921;50.964;6.800;2022-12-07T13:30:42;19.47;;;11.00;;
17604;SDS011;8921;50.964;6.800;2022-12-07T13:33:08;20.93;;;10.17;;
17604;SDS011;8921;50.964;6.800;2022-12-07T13:35:35;15.37;;;9.90;;
17604;SDS011;8921;50.964;6.800;2022-12-07T13:40:43;16.63;;;10.63;;
17604;SDS011;8921;50.964;6.800;2022-12-07T13:43:12;16.57;;;9.90;;
17604;SDS011;8921;50.964;6.800;2022-12-07T13:45:41;14.83;;;10.43;;
17604;SDS011;8921;50.964;6.800;2022-12-07T13:51:03;19.73;;;11.03;;
17604;SDS011;8921;50.964;6.800;2022-12-07T13:53:31;20.23;;;11.07;;
17604;SDS011;8921;50.964;6.800;2022-12-07T13:56:00;16.33;;;10.60;;
17604;SDS011;8921;50.964;6.800;2022-12-07T13:58:29;20.80;;;12.63;;
17604;SDS011;8921;50.964;6.800;2022-12-07T14:00:56;19.07;;;12.10;;
17604;SDS011;8921;50.964;6.800;2022-12-07T14:03:29;20.67;;;11.97;;
17604;SDS011;8921;50.964;6.800;2022-12-07T14:06:06;23.20;;;11.87;;
17604;SDS011;8921;50.964;6.800;2022-12-07T14:08:33;19.23;;;12.87;;
17604;SDS011;8921;50.964;6.800;2022-12-07T14:11:01;17.73;;;10.80;;
17604;SDS011;8921;50.964;6.800;2022-12-07T14:13:36;18.10;;;10.57;;
17604;SDS011;8921;50.964;6.800;2022-12-07T14:16:04;17.80;;;10.73;;
17604;SDS011;8921;50.964;6.800;2022-12-07T14:18:40;18.77;;;11.07;;
17604;SDS011;8921;50.964;6.800;2022-12-07T14:21:16;24.67;;;10.63;;
17604;SDS011;8921;50.964;6.800;2022-12-07T14:23:42;18.70;;;10.97;;
17604;SDS011;8921;50.964;6.800;2022-12-07T14:26:12;19.80;;;10.20;;
17604;SDS011;8921;50.964;6.800;2022-12-07T14:28:39;20.67;;;11.07;;
17604;SDS011;8921;50.964;6.800;2022-12-07T14:31:13;22.50;;;10.50;;
17604;SDS011;8921;50.964;6.800;2022-12-07T14:33:38;19.60;;;11.03;;
17604;SDS011;8921;50.964;6.800;2022-12-07T14:36:10;21.20;;;10.80;;
17604;SDS011;8921;50.964;6.800;2022-12-07T14:38:37;17.30;;;10.50;;
17604;SDS011;8921;50.964;6.800;2022-12-07T14:41:06;20.70;;;11.80;;
17604;SDS011;8921;50.964;6.800;2022-12-07T14:43:52;19.63;;;9.67;;
17604;SDS011;8921;50.964;6.800;2022-12-07T14:46:20;14.60;;;9.30;;
17604;SDS011;8921;50.964;6.800;2022-12-07T14:48:48;17.13;;;9.37;;
17604;SDS011;8921;50.964;6.800;2022-12-07T14:51:17;15.97;;;10.07;;
17604;SDS011;8921;50.964;6.800;2022-12-07T14:53:48;16.53;;;9.70;;
17604;SDS011;8921;50.964;6.800;2022-12-07T14:56:16;17.60;;;9.60;;
17604;SDS011;8921;50.964;6.800;2022-12-07T14:58:44;17.93;;;10.70;;
17604;SDS011;8921;50.964;6.800;2022-12-07T15:01:12;18.73;;;11.20;;
17604;SDS011;8921;50.964;6.800;2022-12-07T15:03:40;19.93;;;11.63;;
17604;SDS011;8921;50.964;6.800;2022-12-07T15:06:18;17.30;;;10.97;;
17604;SDS011;8921;50.964;6.800;2022-12-07T15:08:37;17.50;;;10.23;;
17604;SDS011;8921;50.964;6.800;2022-12-07T15:11:05;25.37;;;11.87;;
17604;SDS011;8921;50.964;6.800;2022-12-07T15:13:33;19.83;;;13.67;;
17604;SDS011;8921;50.964;6.800;2022-12-07T15:16:20;16.00;;;10.87;;
17604;SDS011;8921;50.964;6.800;2022-12-07T15:18:48;24.37;;;12.33;;
17604;SDS011;8921;50.964;6.800;2022-12-07T15:21:17;21.47;;;11.40;;
17604;SDS011;8921;50.964;6.800;2022-12-07T15:23:46;15.97;;;11.17;;
17604;SDS011;8921;50.964;6.800;2022-12-07T15:26:13;21.30;;;12.30;;
17604;SDS011;8921;50.964;6.800;2022-12-07T15:28:41;21.30;;;12.03;;
17604;SDS011;8921;50.964;6.800;2022-12-07T15:31:13;20.90;;;12.70;;
17604;SDS011;8921;50.964;6.800;2022-12-07T15:33:41;16.83;;;10.50;;
17604;SDS011;8921;50.964;6.800;2022-12-07T15:36:12;18.90;;;10.60;;
17604;SDS011;8921;50.964;6.800;2022-12-07T15:38:37;19.30;;;10.10;;
17604;SDS011;8921;50.964;6.800;2022-12-07T15:41:05;17.03;;;8.13;;
17604;SDS011;8921;50.964;6.800;2022-12-07T15:43:33;11.60;;;6.90;;
17604;SDS011;8921;50.964;6.800;2022-12-07T15:46:20;9.60;;;6.07;;
17604;SDS011;8921;50.964;6.800;2022-12-07T15:48:48;10.90;;;6.30;;
17604;SDS011;8921;50.964;6.800;2022-12-07T15:51:17;8.80;;;6.60;;
17604;SDS011;8921;50.964;6.800;2022-12-07T15:53:45;9.57;;;6.33;;
17604;SDS011;8921;50.964;6.800;2022-12-07T15:56:13;12.83;;;7.70;;
17604;SDS011;8921;50.964;6.800;2022-12-07T15:58:41;10.97;;;7.30;;
17604;SDS011;8921;50.964;6.800;2022-12-07T16:01:13;11.80;;;7.00;;
17604;SDS011;8921;50.964;6.800;2022-12-07T16:03:40;13.80;;;8.47;;
17604;SDS011;8921;50.964;6.800;2022-12-07T16:06:08;10.70;;;7.60;;
17604;SDS011;8921;50.964;6.800;2022-12-07T16:08:36;11.50;;;8.80;;
17604;SDS011;8921;50.964;6.800;2022-12-07T16:11:05;12.70;;;8.37;;
17604;SDS011;8921;50.964;6.800;2022-12-07T16:13:33;17.13;;;9.53;;
17604;SDS011;8921;50.964;6.800;2022-12-07T16:16:02;16.50;;;7.07;;
17604;SDS011;8921;50.964;6.800;2022-12-07T16:18:29;10.23;;;7.40;;
17604;SDS011;8921;50.964;6.800;2022-12-07T16:20:57;11.27;;;7.77;;